Time;durP1;ratioP1;P1;durP2;ratioP2;P2;SDS_P1;SDS_P2;PMS_P1;PMS_P2;Temp;Humidity;BMP_temperature;BMP_pressure;BME280_temperature;BME280_humidity;BME280_pressure;Samples;Min_cycle;Max_cycle;Signal;HPM_P1;HPM_P2
2021/12/02 00:01:17;;;;;;;0.10;0.10;;;6.60;99.90;;;;;;5007356;28;20186;-80
2021/12/02 00:03:44;;;;;;;0.10;0.10;;;6.60;99.90;;;;;;5019233;28;20183;-80
2021/12/02 00:06:12;;;;;;;0.10;0.10;;;6.60;99.90;;;;;;5000045;28;20238;-80
2021/12/02 00:08:38;;;;;;;0.10;0.10;;;6.60;99.90;;;;;;5001444;28;20187;-80
2021/12/02 00:11:04;;;;;;;0.23;0.23;;;6.60;99.90;;;;;;5002580;28;20182;-80
2021/12/02 00:13:37;;;;;;;0.10;0.10;;;6.60;99.90;;;;;;5019678;28;20180;-80
2021/12/02 00:21:25;;;;;;;0.03;0.03;;;6.70;99.90;;;;;;5015102;28;20226;-80
2021/12/02 00:24:02;;;;;;;0.10;0.10;;;6.70;99.90;;;;;;4998994;28;20214;-80
2021/12/02 00:26:29;;;;;;;0.10;0.10;;;6.80;99.90;;;;;;4995444;28;20218;-80
2021/12/02 00:28:57;;;;;;;0.10;0.10;;;6.80;99.90;;;;;;4994264;28;20179;-80
2021/12/02 00:31:25;;;;;;;0.00;0.00;;;6.90;99.90;;;;;;5002686;28;20674;-80
2021/12/02 00:33:54;;;;;;;0.00;0.00;;;6.90;99.90;;;;;;4996991;28;20252;-80
2021/12/02 00:36:24;;;;;;;0.10;0.10;;;6.90;99.90;;;;;;5000990;28;20213;-80
2021/12/02 00:38:51;;;;;;;0.10;0.10;;;6.90;99.90;;;;;;5001372;28;20578;-80
2021/12/02 00:41:19;;;;;;;0.10;0.10;;;6.90;99.90;;;;;;5008902;28;20195;-80
2021/12/02 00:43:46;;;;;;;0.30;0.20;;;6.90;99.90;;;;;;5009380;28;20226;-80
2021/12/02 00:46:15;;;;;;;0.10;0.10;;;6.90;99.90;;;;;;5011821;28;20208;-80
2021/12/02 00:48:42;;;;;;;0.20;0.20;;;6.90;99.90;;;;;;5015354;28;20183;-80
2021/12/02 00:51:09;;;;;;;0.10;0.10;;;6.90;99.90;;;;;;5004970;28;20194;-80
2021/12/02 00:53:38;;;;;;;0.10;0.10;;;6.90;99.90;;;;;;5021289;28;20199;-79
2021/12/02 00:56:06;;;;;;;0.10;0.10;;;6.70;99.90;;;;;;5005270;28;20207;-80
2021/12/02 00:58:32;;;;;;;0.10;0.10;;;6.70;99.90;;;;;;5004313;28;20250;-80
2021/12/02 01:00:59;;;;;;;0.10;0.10;;;6.80;99.90;;;;;;5015234;28;20183;-80
2021/12/02 01:03:35;;;;;;;0.17;0.17;;;6.80;99.90;;;;;;5019331;28;20183;-80
2021/12/02 01:06:06;;;;;;;0.20;0.20;;;6.80;99.90;;;;;;5027068;28;20220;-80
2021/12/02 01:08:34;;;;;;;0.10;0.10;;;6.80;99.90;;;;;;5003506;28;20237;-80
2021/12/02 01:11:00;;;;;;;0.00;0.00;;;6.80;99.90;;;;;;5022307;28;20238;-79
2021/12/02 01:13:26;;;;;;;0.10;0.10;;;6.70;99.90;;;;;;5007402;28;20190;-80
2021/12/02 01:15:52;;;;;;;0.43;0.30;;;6.70;99.90;;;;;;5010814;28;20270;-80
2021/12/02 01:18:18;;;;;;;0.10;0.10;;;6.80;99.90;;;;;;5007326;28;20775;-80
2021/12/02 01:20:47;;;;;;;0.10;0.10;;;6.80;99.90;;;;;;5004947;28;20544;-79
2021/12/02 01:23:15;;;;;;;0.30;0.30;;;6.80;99.90;;;;;;5025045;28;20186;-81
2021/12/02 01:25:42;;;;;;;0.07;0.07;;;6.90;99.90;;;;;;5024215;28;20301;-80
2021/12/02 01:28:08;;;;;;;0.10;0.10;;;6.80;99.90;;;;;;5001085;28;20206;-80
2021/12/02 01:30:34;;;;;;;0.17;0.17;;;6.90;99.90;;;;;;5001549;28;20189;-80
2021/12/02 01:33:03;;;;;;;0.10;0.10;;;6.90;99.90;;;;;;5008438;28;20542;-80
2021/12/02 01:35:29;;;;;;;0.20;0.20;;;6.90;99.90;;;;;;5011848;28;20268;-80
2021/12/02 01:37:55;;;;;;;0.10;0.10;;;6.90;99.90;;;;;;5007620;28;20672;-79
2021/12/02 01:40:21;;;;;;;0.10;0.10;;;6.90;99.90;;;;;;4992783;28;20195;-80
2021/12/02 01:42:52;;;;;;;0.50;0.20;;;6.90;99.90;;;;;;4997558;28;20191;-80
2021/12/02 01:45:22;;;;;;;0.10;0.10;;;6.90;99.90;;;;;;5018328;28;20297;-80
2021/12/02 01:47:52;;;;;;;0.10;0.10;;;6.90;99.90;;;;;;5002446;28;20186;-80
2021/12/02 01:50:21;;;;;;;0.10;0.10;;;6.90;99.90;;;;;;5008532;28;20220;-81
2021/12/02 01:52:54;;;;;;;0.10;0.10;;;6.90;99.90;;;;;;4988902;28;20183;-80
2021/12/02 01:55:20;;;;;;;0.10;0.10;;;7.00;99.90;;;;;;5002183;28;20218;-80
2021/12/02 01:58:03;;;;;;;0.10;0.10;;;7.00;99.90;;;;;;5018536;28;20191;-80
2021/12/02 02:00:41;;;;;;;0.10;0.10;;;7.00;99.90;;;;;;5015226;28;20191;-80
2021/12/02 02:03:08;;;;;;;0.10;0.10;;;6.90;99.90;;;;;;4998473;28;20262;-79
2021/12/02 02:05:33;;;;;;;0.13;0.10;;;6.90;99.90;;;;;;4998286;28;20301;-80
2021/12/02 02:08:12;;;;;;;0.10;0.10;;;6.90;99.90;;;;;;4998417;28;20187;-79
2021/12/02 02:10:41;;;;;;;0.10;0.10;;;6.90;99.90;;;;;;5018369;28;20194;-80
2021/12/02 02:13:09;;;;;;;0.10;0.10;;;6.80;99.90;;;;;;4999509;28;20274;-80
2021/12/02 02:15:36;;;;;;;0.20;0.20;;;6.80;99.90;;;;;;5001096;28;20214;-80
2021/12/02 02:21:00;;;;;;;0.10;0.10;;;6.70;99.90;;;;;;5016549;28;20214;-80
2021/12/02 02:23:29;;;;;;;0.10;0.10;;;6.80;99.90;;;;;;4998902;28;20570;-80
2021/12/02 02:25:55;;;;;;;0.10;0.10;;;6.70;99.90;;;;;;4997563;28;20764;-80
2021/12/02 02:28:21;;;;;;;0.10;0.10;;;6.70;99.90;;;;;;4995177;28;20176;-80
2021/12/02 02:30:47;;;;;;;0.20;0.20;;;6.80;99.90;;;;;;5018722;28;20188;-80
2021/12/02 02:33:13;;;;;;;0.10;0.10;;;6.70;99.90;;;;;;4989197;28;20651;-80
2021/12/02 02:35:40;;;;;;;0.10;0.10;;;6.70;99.90;;;;;;5019731;28;20199;-80
2021/12/02 02:38:06;;;;;;;0.57;0.57;;;6.70;99.90;;;;;;5000309;28;20191;-80
2021/12/02 02:40:33;;;;;;;0.07;0.07;;;6.70;99.90;;;;;;4998120;28;20364;-80
2021/12/02 02:43:04;;;;;;;0.10;0.10;;;6.70;99.90;;;;;;5016882;28;20183;-80
2021/12/02 02:45:30;;;;;;;0.10;0.10;;;6.70;99.90;;;;;;5001963;28;20234;-80
2021/12/02 02:47:55;;;;;;;0.10;0.10;;;6.60;99.90;;;;;;5016145;28;20194;-81
2021/12/02 02:50:21;;;;;;;0.10;0.10;;;6.50;99.90;;;;;;5015022;28;21982;-80
2021/12/02 02:52:47;;;;;;;0.10;0.10;;;6.40;99.90;;;;;;5020086;28;20269;-80
2021/12/02 02:55:17;;;;;;;0.03;0.03;;;6.30;99.90;;;;;;5018254;28;20664;-81
2021/12/02 02:58:05;;;;;;;0.00;0.00;;;6.30;99.90;;;;;;5015603;28;20312;-80
2021/12/02 03:00:34;;;;;;;1.07;0.60;;;6.20;99.90;;;;;;5010247;28;20177;-80
2021/12/02 03:03:30;;;;;;;0.10;0.10;;;6.10;99.90;;;;;;4997893;28;20187;-80
2021/12/02 03:08:21;;;;;;;0.13;0.13;;;6.00;99.90;;;;;;5018254;28;20178;-80
2021/12/02 03:10:52;;;;;;;0.10;0.10;;;5.90;99.90;;;;;;4994307;28;20762;-80
2021/12/02 03:18:28;;;;;;;0.20;0.20;;;5.80;99.90;;;;;;5006388;28;20289;-80
2021/12/02 03:20:55;;;;;;;0.10;0.10;;;5.80;99.90;;;;;;4988638;28;20211;-80
2021/12/02 03:23:22;;;;;;;0.10;0.10;;;5.80;99.90;;;;;;4999128;28;20185;-80
2021/12/02 03:25:47;;;;;;;0.10;0.10;;;5.70;99.90;;;;;;4994517;28;20233;-80
2021/12/02 03:28:13;;;;;;;0.10;0.10;;;5.70;99.90;;;;;;5000795;28;20171;-80
2021/12/02 03:30:38;;;;;;;0.10;0.10;;;5.70;99.90;;;;;;4999740;28;20179;-80
2021/12/02 03:33:04;;;;;;;0.10;0.10;;;5.70;99.90;;;;;;5012934;28;20190;-80
2021/12/02 03:35:30;;;;;;;0.10;0.10;;;5.70;99.90;;;;;;5022239;28;20290;-80
2021/12/02 03:37:56;;;;;;;0.10;0.10;;;5.70;99.90;;;;;;5018603;28;20180;-80
2021/12/02 03:40:22;;;;;;;0.10;0.10;;;5.70;99.90;;;;;;4992923;28;20633;-80
2021/12/02 03:42:51;;;;;;;0.10;0.10;;;5.70;99.90;;;;;;5013902;28;20542;-80
2021/12/02 03:45:18;;;;;;;0.10;0.10;;;5.70;99.90;;;;;;4999605;28;20226;-81
2021/12/02 03:47:44;;;;;;;0.10;0.10;;;5.70;99.90;;;;;;5000790;28;20572;-82
2021/12/02 03:50:10;;;;;;;0.10;0.10;;;5.70;99.90;;;;;;5010012;28;20193;-80
2021/12/02 03:52:35;;;;;;;0.07;0.07;;;5.70;99.90;;;;;;5010416;28;20189;-80
2021/12/02 03:55:02;;;;;;;0.00;0.00;;;5.80;99.90;;;;;;5002915;28;20214;-80
2021/12/02 03:57:32;;;;;;;0.10;0.10;;;5.70;99.90;;;;;;5002303;28;20183;-80
2021/12/02 03:59:58;;;;;;;0.10;0.10;;;5.70;99.90;;;;;;5014618;28;20186;-80
2021/12/02 04:02:24;;;;;;;0.10;0.10;;;5.70;99.90;;;;;;4998022;28;20241;-80
2021/12/02 04:04:49;;;;;;;0.10;0.10;;;5.60;99.90;;;;;;4995845;28;20264;-81
2021/12/02 04:07:18;;;;;;;0.10;0.10;;;5.60;99.90;;;;;;4999591;28;20182;-80
2021/12/02 04:09:45;;;;;;;0.00;0.00;;;5.50;99.90;;;;;;4996142;28;20185;-80
2021/12/02 04:14:41;;;;;;;0.10;0.10;;;5.40;99.90;;;;;;5011860;28;20187;-80
2021/12/02 04:17:08;;;;;;;0.00;0.00;;;5.40;99.90;;;;;;4994975;28;20267;-80
2021/12/02 04:19:36;;;;;;;0.10;0.10;;;5.40;99.90;;;;;;4992784;28;20187;-80
2021/12/02 04:22:02;;;;;;;0.10;0.10;;;5.30;99.90;;;;;;5005145;28;20193;-79
2021/12/02 04:24:28;;;;;;;0.10;0.10;;;5.30;99.90;;;;;;5010442;28;20234;-80
2021/12/02 04:26:54;;;;;;;0.10;0.10;;;5.40;99.90;;;;;;5014454;28;20782;-80
2021/12/02 04:29:20;;;;;;;0.10;0.10;;;5.40;99.90;;;;;;5006987;28;20554;-80
2021/12/02 04:31:46;;;;;;;0.10;0.10;;;5.30;99.90;;;;;;5007035;28;20179;-79
2021/12/02 04:34:13;;;;;;;0.10;0.10;;;5.30;99.90;;;;;;5000401;28;20179;-80
2021/12/02 04:36:39;;;;;;;0.10;0.10;;;5.30;99.90;;;;;;5004743;28;20628;-79
2021/12/02 04:39:05;;;;;;;0.10;0.10;;;5.30;99.90;;;;;;5006726;28;20471;-80
2021/12/02 04:41:31;;;;;;;0.67;0.20;;;5.40;99.90;;;;;;5003205;28;20192;-80
2021/12/02 04:43:57;;;;;;;0.00;0.00;;;5.40;99.90;;;;;;5002074;28;20218;-80
2021/12/02 04:46:22;;;;;;;0.10;0.10;;;5.40;99.90;;;;;;5005493;28;20216;-80
2021/12/02 04:48:48;;;;;;;0.10;0.10;;;5.50;99.90;;;;;;5023474;28;20178;-80
2021/12/02 04:51:14;;;;;;;0.70;0.20;;;5.50;99.90;;;;;;5023654;28;20280;-80
2021/12/02 04:53:39;;;;;;;0.00;0.00;;;5.50;99.90;;;;;;5001396;28;20186;-80
2021/12/02 04:56:05;;;;;;;0.10;0.10;;;5.50;99.90;;;;;;4992733;28;20818;-80
2021/12/02 04:58:30;;;;;;;0.10;0.10;;;5.50;99.90;;;;;;5008161;28;20203;-80
2021/12/02 05:00:56;;;;;;;0.07;0.07;;;5.50;99.90;;;;;;5001276;28;20187;-81
2021/12/02 05:03:23;;;;;;;0.10;0.10;;;5.40;99.90;;;;;;5004115;28;20286;-80
2021/12/02 05:05:48;;;;;;;0.10;0.10;;;5.40;99.90;;;;;;4998033;28;20240;-80
2021/12/02 05:08:14;;;;;;;0.00;0.00;;;5.40;99.90;;;;;;5004820;28;20179;-80
2021/12/02 05:10:40;;;;;;;0.10;0.10;;;5.40;99.90;;;;;;5007280;28;20178;-80
2021/12/02 05:13:05;;;;;;;0.10;0.10;;;5.40;99.90;;;;;;5004099;28;20178;-80
2021/12/02 05:15:31;;;;;;;0.00;0.00;;;5.50;99.90;;;;;;5024233;28;20614;-80
2021/12/02 05:17:57;;;;;;;0.10;0.10;;;5.40;99.90;;;;;;5008383;28;20187;-79
2021/12/02 05:20:22;;;;;;;0.07;0.07;;;5.30;99.90;;;;;;5017747;28;20196;-80
2021/12/02 05:22:48;;;;;;;0.10;0.10;;;5.30;99.90;;;;;;4994282;28;20185;-80
2021/12/02 05:25:14;;;;;;;0.10;0.10;;;5.30;99.90;;;;;;4992152;28;20194;-80
2021/12/02 05:27:39;;;;;;;0.07;0.07;;;5.30;99.90;;;;;;5016094;28;20183;-80
2021/12/02 05:30:06;;;;;;;0.10;0.10;;;5.30;99.90;;;;;;5011385;28;20737;-80
2021/12/02 05:32:32;;;;;;;0.10;0.10;;;5.30;99.90;;;;;;5012404;28;20223;-80
2021/12/02 05:34:58;;;;;;;0.10;0.10;;;5.20;99.90;;;;;;5006257;28;20213;-80
2021/12/02 05:37:24;;;;;;;0.10;0.10;;;5.20;99.90;;;;;;5008867;28;20188;-79
2021/12/02 05:39:50;;;;;;;0.10;0.10;;;5.20;99.90;;;;;;5001404;28;20195;-79
2021/12/02 05:42:15;;;;;;;0.00;0.00;;;5.20;99.90;;;;;;4999972;28;20197;-79
2021/12/02 05:44:42;;;;;;;0.00;0.00;;;5.20;99.90;;;;;;5020179;28;20248;-79
2021/12/02 05:47:07;;;;;;;0.20;0.20;;;5.20;99.90;;;;;;5003059;28;20205;-79
2021/12/02 05:49:33;;;;;;;0.10;0.10;;;5.20;99.90;;;;;;5020364;28;20278;-80
2021/12/02 05:51:59;;;;;;;0.10;0.10;;;5.20;99.90;;;;;;5010058;28;20191;-80
2021/12/02 05:54:24;;;;;;;0.10;0.10;;;5.20;99.90;;;;;;4997850;28;20179;-80
2021/12/02 05:56:50;;;;;;;0.00;0.00;;;5.20;99.90;;;;;;5017695;28;20196;-79
2021/12/02 05:59:15;;;;;;;0.00;0.00;;;5.30;99.90;;;;;;5002827;28;20251;-79
2021/12/02 06:01:42;;;;;;;0.10;0.10;;;5.30;99.90;;;;;;5003377;28;20738;-80
2021/12/02 06:04:09;;;;;;;0.10;0.10;;;5.30;99.90;;;;;;4995954;28;20192;-80
2021/12/02 06:06:35;;;;;;;0.03;0.03;;;5.30;99.90;;;;;;4998302;28;20211;-80
2021/12/02 06:09:01;;;;;;;0.10;0.10;;;5.30;99.90;;;;;;5001606;28;20195;-80
2021/12/02 06:11:27;;;;;;;0.30;0.30;;;5.30;99.90;;;;;;5001206;28;20204;-80
2021/12/02 06:13:52;;;;;;;0.00;0.00;;;5.30;99.90;;;;;;4999526;28;20179;-80
2021/12/02 06:16:20;;;;;;;0.03;0.03;;;5.30;99.90;;;;;;5015549;28;20227;-81
2021/12/02 06:18:46;;;;;;;0.40;0.40;;;5.30;99.90;;;;;;5014410;28;20302;-81
2021/12/02 06:21:11;;;;;;;0.10;0.10;;;5.30;99.90;;;;;;4998316;28;20229;-81
2021/12/02 06:23:39;;;;;;;0.10;0.10;;;5.30;99.90;;;;;;5010529;28;20190;-80
2021/12/02 06:26:05;;;;;;;0.10;0.10;;;5.30;99.90;;;;;;4998013;28;20333;-80
2021/12/02 06:28:31;;;;;;;0.20;0.20;;;5.40;99.90;;;;;;5000799;28;20181;-80
2021/12/02 06:30:56;;;;;;;0.57;0.37;;;5.30;99.90;;;;;;4994981;28;20181;-80
2021/12/02 06:33:22;;;;;;;0.00;0.00;;;5.40;99.90;;;;;;4995369;28;20682;-81
2021/12/02 06:35:48;;;;;;;0.10;0.10;;;5.40;99.90;;;;;;4993496;28;20210;-80
2021/12/02 06:38:14;;;;;;;0.00;0.00;;;5.40;99.90;;;;;;4994554;28;20216;-79
2021/12/02 06:40:42;;;;;;;0.10;0.10;;;5.40;99.90;;;;;;4994452;28;20278;-79
2021/12/02 06:43:09;;;;;;;0.10;0.10;;;5.40;99.90;;;;;;4996374;28;20628;-79
2021/12/02 06:45:35;;;;;;;0.30;0.30;;;5.40;99.90;;;;;;4990412;28;20235;-79
2021/12/02 06:48:00;;;;;;;0.00;0.00;;;5.40;99.90;;;;;;4994322;28;20239;-80
2021/12/02 06:50:27;;;;;;;0.10;0.10;;;5.50;99.90;;;;;;4995661;28;20195;-78
2021/12/02 06:52:53;;;;;;;0.33;0.33;;;5.50;99.90;;;;;;4993276;28;20584;-79
2021/12/02 06:55:20;;;;;;;0.10;0.10;;;5.50;99.90;;;;;;4993343;28;20307;-79
2021/12/02 06:57:46;;;;;;;0.10;0.10;;;5.50;99.90;;;;;;4994026;28;20191;-79
2021/12/02 07:00:15;;;;;;;0.10;0.10;;;5.50;99.90;;;;;;4994375;28;20193;-79
2021/12/02 07:02:41;;;;;;;0.10;0.10;;;5.50;99.90;;;;;;5011464;28;20673;-79
2021/12/02 07:05:09;;;;;;;0.10;0.10;;;5.50;99.90;;;;;;4994607;28;20223;-79
2021/12/02 07:07:36;;;;;;;0.10;0.10;;;5.50;99.90;;;;;;5008279;28;20705;-79
2021/12/02 07:10:08;;;;;;;0.20;0.20;;;5.50;99.90;;;;;;5009934;28;20198;-79
2021/12/02 07:12:36;;;;;;;0.20;0.20;;;5.50;99.90;;;;;;4994935;28;20272;-79
2021/12/02 07:15:06;;;;;;;0.10;0.10;;;5.50;99.90;;;;;;4994152;28;20257;-80
2021/12/02 07:17:33;;;;;;;0.10;0.10;;;5.50;99.90;;;;;;5010380;28;20197;-79
2021/12/02 07:20:00;;;;;;;1.60;0.17;;;5.50;99.90;;;;;;4995800;28;20212;-79
2021/12/02 07:22:26;;;;;;;1.23;1.13;;;5.50;99.90;;;;;;4993910;28;20287;-79
2021/12/02 07:24:51;;;;;;;0.10;0.10;;;5.40;99.90;;;;;;4994480;28;20246;-79
2021/12/02 07:27:17;;;;;;;0.07;0.07;;;5.30;99.90;;;;;;4994277;28;20194;-78
2021/12/02 07:29:42;;;;;;;0.00;0.00;;;5.40;99.90;;;;;;4988527;28;20179;-79
2021/12/02 07:32:10;;;;;;;0.00;0.00;;;5.30;99.90;;;;;;4992410;28;20215;-79
2021/12/02 07:34:39;;;;;;;0.37;0.30;;;5.30;99.90;;;;;;5006996;28;20183;-81
2021/12/02 07:37:05;;;;;;;0.10;0.10;;;5.30;99.90;;;;;;4992334;28;20652;-80
2021/12/02 07:39:30;;;;;;;0.00;0.00;;;5.20;99.90;;;;;;4995786;28;20275;-80
2021/12/02 07:41:56;;;;;;;0.00;0.00;;;5.20;99.90;;;;;;4995805;28;20191;-81
2021/12/02 07:44:22;;;;;;;0.10;0.10;;;5.20;99.90;;;;;;4999275;28;20210;-81
2021/12/02 07:46:48;;;;;;;0.10;0.10;;;5.20;99.90;;;;;;4996450;28;20205;-80
2021/12/02 07:49:14;;;;;;;0.00;0.00;;;5.20;99.90;;;;;;4991214;28;20314;-81
2021/12/02 07:51:43;;;;;;;0.10;0.10;;;5.20;99.90;;;;;;4996028;28;20205;-81
2021/12/02 07:54:09;;;;;;;0.10;0.10;;;5.20;99.90;;;;;;5002292;28;20187;-81
2021/12/02 07:56:35;;;;;;;0.03;0.03;;;5.20;99.90;;;;;;5005809;28;20201;-81
2021/12/02 07:59:01;;;;;;;0.20;0.20;;;5.30;99.90;;;;;;5006613;28;20189;-81
2021/12/02 08:01:27;;;;;;;0.30;0.30;;;5.30;99.90;;;;;;4996770;28;20272;-80
2021/12/02 08:03:53;;;;;;;0.10;0.10;;;5.30;99.90;;;;;;5012743;28;20212;-81
2021/12/02 08:06:18;;;;;;;0.10;0.10;;;5.40;99.90;;;;;;5003523;28;20207;-81
2021/12/02 08:08:46;;;;;;;0.10;0.10;;;5.40;99.90;;;;;;5005701;28;20186;-81
2021/12/02 08:11:12;;;;;;;0.10;0.10;;;5.50;99.90;;;;;;5007066;28;20262;-81
2021/12/02 08:13:38;;;;;;;0.10;0.10;;;5.50;99.90;;;;;;5007141;28;20553;-81
2021/12/02 08:16:05;;;;;;;0.10;0.10;;;5.50;99.90;;;;;;5007546;28;20208;-81
2021/12/02 08:18:32;;;;;;;0.10;0.10;;;5.50;99.90;;;;;;4995716;28;21028;-81
2021/12/02 08:20:58;;;;;;;0.10;0.10;;;5.50;99.90;;;;;;5008028;28;20249;-81
2021/12/02 08:23:24;;;;;;;0.10;0.10;;;5.50;99.90;;;;;;5008013;28;20178;-81
2021/12/02 08:25:50;;;;;;;0.10;0.10;;;5.50;99.90;;;;;;5005390;28;20231;-81
2021/12/02 08:28:16;;;;;;;0.20;0.20;;;5.60;99.90;;;;;;5006255;28;20191;-81
2021/12/02 08:30:42;;;;;;;0.53;0.53;;;5.50;99.90;;;;;;5006339;28;20197;-81
2021/12/02 08:33:09;;;;;;;0.10;0.10;;;5.50;99.90;;;;;;5001857;28;20179;-81
2021/12/02 08:35:35;;;;;;;0.10;0.10;;;5.60;99.90;;;;;;5004557;28;20210;-81
2021/12/02 08:38:08;;;;;;;0.10;0.10;;;5.60;99.90;;;;;;5007522;28;20219;-81
2021/12/02 08:40:36;;;;;;;0.10;0.10;;;5.70;99.90;;;;;;5008220;28;20562;-80
2021/12/02 08:43:04;;;;;;;0.30;0.30;;;5.70;99.90;;;;;;5026849;28;20182;-81
2021/12/02 08:45:31;;;;;;;0.10;0.10;;;5.70;99.90;;;;;;5008480;28;20233;-80
2021/12/02 08:47:58;;;;;;;0.30;0.30;;;5.80;99.90;;;;;;5006511;28;20180;-81
2021/12/02 08:50:25;;;;;;;0.00;0.00;;;5.70;99.90;;;;;;5002948;28;20326;-80
2021/12/02 08:52:52;;;;;;;0.83;0.30;;;5.80;99.90;;;;;;5012901;28;20285;-81
2021/12/02 08:55:20;;;;;;;0.10;0.10;;;5.80;99.90;;;;;;5022019;28;20210;-81
2021/12/02 08:57:47;;;;;;;0.10;0.10;;;5.90;99.90;;;;;;4998153;28;20572;-81
2021/12/02 09:00:15;;;;;;;0.00;0.00;;;5.90;99.90;;;;;;5000177;28;20262;-81
2021/12/02 09:02:41;;;;;;;0.00;0.00;;;5.90;99.90;;;;;;5000871;28;20190;-82
2021/12/02 09:05:08;;;;;;;0.10;0.10;;;5.90;99.90;;;;;;5003388;28;20246;-81
2021/12/02 09:07:36;;;;;;;0.10;0.10;;;5.90;99.90;;;;;;5002328;28;20208;-80
2021/12/02 09:10:07;;;;;;;0.10;0.10;;;5.90;99.90;;;;;;5011946;28;20176;-81
2021/12/02 09:12:33;;;;;;;0.10;0.10;;;5.90;99.90;;;;;;4997867;28;20279;-81
2021/12/02 09:14:59;;;;;;;0.10;0.10;;;6.00;99.90;;;;;;5013842;28;20208;-80
2021/12/02 09:17:25;;;;;;;0.30;0.20;;;6.10;99.90;;;;;;4999634;28;20191;-80
2021/12/02 09:19:50;;;;;;;0.00;0.00;;;6.20;99.90;;;;;;4995675;28;20526;-81
2021/12/02 09:22:16;;;;;;;0.10;0.10;;;6.10;99.90;;;;;;4995001;28;20687;-79
2021/12/02 09:24:42;;;;;;;0.30;0.30;;;6.10;99.90;;;;;;5001186;28;20203;-81
2021/12/02 09:27:08;;;;;;;0.10;0.10;;;6.10;99.90;;;;;;4999333;28;20185;-82
2021/12/02 09:29:34;;;;;;;0.10;0.10;;;6.10;99.90;;;;;;5016069;28;20243;-82
2021/12/02 09:32:00;;;;;;;0.00;0.00;;;6.10;99.90;;;;;;5000717;28;20203;-82
2021/12/02 09:34:26;;;;;;;0.07;0.07;;;6.10;99.90;;;;;;4988535;28;20196;-82
2021/12/02 09:36:53;;;;;;;0.10;0.10;;;6.10;99.90;;;;;;4999692;28;20214;-83
2021/12/02 09:39:19;;;;;;;0.87;0.20;;;6.00;99.90;;;;;;5001901;28;20195;-81
2021/12/02 09:41:46;;;;;;;0.10;0.10;;;6.00;99.90;;;;;;4992463;28;20235;-81
2021/12/02 09:44:12;;;;;;;0.10;0.10;;;6.00;99.90;;;;;;4991929;28;20190;-82
2021/12/02 09:46:40;;;;;;;0.00;0.00;;;6.00;99.90;;;;;;5004497;28;20219;-82
2021/12/02 09:49:09;;;;;;;0.10;0.10;;;6.00;99.90;;;;;;4994686;28;20196;-82
2021/12/02 09:51:46;;;;;;;0.03;0.03;;;5.90;99.90;;;;;;5000019;28;20179;-82
2021/12/02 09:54:18;;;;;;;0.10;0.10;;;5.80;99.90;;;;;;4995539;28;20269;-81
2021/12/02 09:56:48;;;;;;;0.30;0.30;;;5.60;99.90;;;;;;4990933;28;20202;-81
2021/12/02 09:59:28;;;;;;;0.20;0.10;;;5.60;99.90;;;;;;5009667;28;20185;-82
2021/12/02 10:02:02;;;;;;;0.10;0.10;;;5.60;99.90;;;;;;4988837;28;20181;-81
2021/12/02 10:04:28;;;;;;;0.10;0.10;;;5.60;99.90;;;;;;5001985;28;20212;-81
2021/12/02 10:07:06;;;;;;;0.37;0.30;;;5.70;99.90;;;;;;4994681;28;20204;-82
2021/12/02 10:09:50;;;;;;;0.20;0.20;;;5.90;99.90;;;;;;4992348;28;20232;-82
2021/12/02 10:12:21;;;;;;;0.10;0.10;;;6.10;99.90;;;;;;4998769;28;20184;-82
2021/12/02 10:14:54;;;;;;;0.20;0.20;;;6.30;99.90;;;;;;4990028;28;20213;-81
2021/12/02 10:26:01;;;;;;;0.10;0.10;;;6.60;99.90;;;;;;5012605;28;20216;-82
2021/12/02 10:28:29;;;;;;;0.10;0.10;;;6.40;99.90;;;;;;5014301;28;20181;-81
2021/12/02 10:31:01;;;;;;;0.10;0.10;;;6.30;99.90;;;;;;4996678;28;20733;-82
2021/12/02 10:33:39;;;;;;;0.10;0.10;;;6.30;99.90;;;;;;5000747;28;20224;-82
2021/12/02 10:36:27;;;;;;;0.20;0.20;;;6.20;99.90;;;;;;4998040;28;20204;-82
2021/12/02 10:38:55;;;;;;;0.40;0.40;;;6.10;99.90;;;;;;4984944;28;20184;-81
2021/12/02 10:41:25;;;;;;;0.40;0.40;;;6.00;99.90;;;;;;5013593;28;20196;-81
2021/12/02 10:44:19;;;;;;;0.10;0.10;;;6.30;99.90;;;;;;4997914;28;20179;-81
2021/12/02 10:47:01;;;;;;;0.13;0.10;;;6.80;99.90;;;;;;5015148;28;20272;-81
2021/12/02 10:49:39;;;;;;;0.40;0.30;;;7.00;99.90;;;;;;5009788;28;20173;-81
2021/12/02 10:52:06;;;;;;;0.30;0.30;;;6.90;99.90;;;;;;4994711;28;20173;-81
2021/12/02 10:54:37;;;;;;;0.07;0.07;;;7.00;99.90;;;;;;5004667;28;20177;-81
2021/12/02 10:57:09;;;;;;;0.10;0.10;;;7.00;99.90;;;;;;4993236;28;20190;-81
2021/12/02 10:59:36;;;;;;;3.30;0.43;;;7.00;99.90;;;;;;5000625;28;20227;-81
2021/12/02 11:02:26;;;;;;;0.30;0.20;;;6.90;99.90;;;;;;5000563;28;20276;-81
2021/12/02 11:05:01;;;;;;;0.00;0.00;;;7.00;99.90;;;;;;4994983;28;20642;-81
2021/12/02 11:07:30;;;;;;;0.63;0.40;;;7.00;99.90;;;;;;4999008;28;20183;-81
2021/12/02 11:09:59;;;;;;;0.10;0.10;;;7.00;99.90;;;;;;4996951;28;20214;-81
2021/12/02 11:12:33;;;;;;;0.20;0.20;;;7.10;99.90;;;;;;5001365;28;20210;-81
2021/12/02 11:15:24;;;;;;;0.07;0.07;;;7.20;99.90;;;;;;5002522;28;20235;-81
2021/12/02 11:17:59;;;;;;;0.10;0.10;;;7.30;99.90;;;;;;4996146;28;20179;-81
2021/12/02 11:20:33;;;;;;;0.20;0.20;;;7.50;99.90;;;;;;4996718;28;20198;-81
2021/12/02 11:23:00;;;;;;;0.10;0.10;;;7.50;99.90;;;;;;5013677;28;20225;-81
2021/12/02 11:25:27;;;;;;;0.23;0.23;;;7.60;99.90;;;;;;5002334;28;20207;-82
2021/12/02 11:27:54;;;;;;;2.83;2.63;;;7.50;99.90;;;;;;4997123;28;20266;-81
2021/12/02 11:30:21;;;;;;;2.73;2.53;;;7.20;99.90;;;;;;5018671;28;20197;-81
2021/12/02 11:32:51;;;;;;;0.20;0.20;;;7.00;99.90;;;;;;5021640;28;20183;-81
2021/12/02 11:35:27;;;;;;;0.20;0.20;;;7.10;99.90;;;;;;5003772;28;20222;-81
2021/12/02 11:37:56;;;;;;;0.10;0.10;;;6.90;99.90;;;;;;4999428;28;20175;-81
2021/12/02 11:40:34;;;;;;;0.10;0.10;;;6.90;99.90;;;;;;5007311;28;20679;-81
2021/12/02 11:43:01;;;;;;;0.10;0.10;;;7.00;99.90;;;;;;4987842;28;20190;-82
2021/12/02 11:45:30;;;;;;;0.23;0.23;;;7.10;99.90;;;;;;4996378;28;20249;-81
2021/12/02 11:47:56;;;;;;;0.10;0.10;;;7.00;99.90;;;;;;5003963;28;20239;-81
2021/12/02 11:50:24;;;;;;;0.00;0.00;;;7.00;99.90;;;;;;5000763;28;20179;-82
2021/12/02 11:52:50;;;;;;;0.07;0.07;;;7.00;99.90;;;;;;5009483;28;20175;-82
2021/12/02 11:55:20;;;;;;;0.10;0.10;;;6.90;99.90;;;;;;4997931;28;20212;-81
2021/12/02 11:57:47;;;;;;;0.10;0.10;;;6.80;99.90;;;;;;5018613;28;20247;-81
2021/12/02 12:00:17;;;;;;;0.10;0.10;;;6.60;99.90;;;;;;4995146;28;20191;-81
2021/12/02 12:02:58;;;;;;;0.10;0.10;;;6.60;99.90;;;;;;5000042;28;20629;-81
2021/12/02 12:05:31;;;;;;;0.20;0.20;;;6.20;99.90;;;;;;5000887;28;20214;-82
2021/12/02 12:07:56;;;;;;;0.30;0.30;;;6.40;99.90;;;;;;5002154;28;20207;-81
2021/12/02 12:10:28;;;;;;;0.10;0.10;;;6.40;99.90;;;;;;4999751;28;20814;-82
2021/12/02 12:13:13;;;;;;;0.10;0.10;;;6.40;99.90;;;;;;5001230;28;20210;-82
2021/12/02 12:15:52;;;;;;;0.07;0.07;;;6.40;99.90;;;;;;5000732;28;20208;-81
2021/12/02 12:18:41;;;;;;;0.10;0.10;;;6.50;99.90;;;;;;5016893;28;20204;-81
2021/12/02 12:21:10;;;;;;;0.10;0.10;;;6.40;99.90;;;;;;4999596;28;20564;-82
2021/12/02 12:23:46;;;;;;;0.10;0.10;;;6.50;99.90;;;;;;5005356;28;20194;-81
2021/12/02 12:26:42;;;;;;;0.10;0.10;;;6.70;99.90;;;;;;4999776;28;20264;-82
2021/12/02 12:29:13;;;;;;;0.10;0.10;;;6.40;99.90;;;;;;5007948;28;20185;-81
2021/12/02 12:34:38;;;;;;;0.00;0.00;;;6.20;99.90;;;;;;5033101;28;20264;-82
2021/12/02 12:38:06;;;;;;;0.17;0.17;;;6.30;99.90;;;;;;5012778;28;20197;-81
2021/12/02 12:40:40;;;;;;;0.30;0.30;;;6.10;99.90;;;;;;5030187;28;20177;-82
2021/12/02 12:43:09;;;;;;;0.10;0.10;;;6.10;99.90;;;;;;5010748;28;20184;-81
2021/12/02 12:45:44;;;;;;;0.10;0.10;;;5.90;99.90;;;;;;5009226;28;20247;-82
2021/12/02 12:48:24;;;;;;;0.10;0.10;;;5.60;99.90;;;;;;5009829;28;20209;-81
2021/12/02 12:50:50;;;;;;;0.10;0.10;;;5.50;99.90;;;;;;5011021;28;20232;-82
2021/12/02 12:53:19;;;;;;;0.10;0.10;;;5.10;99.90;;;;;;5010767;28;20192;-81
2021/12/02 12:55:52;;;;;;;0.10;0.10;;;5.10;99.90;;;;;;5003259;28;20208;-81
2021/12/02 12:58:23;;;;;;;0.10;0.10;;;5.10;99.90;;;;;;5010169;28;20221;-81
2021/12/02 13:00:51;;;;;;;0.10;0.10;;;5.30;99.90;;;;;;5002417;28;20189;-81
2021/12/02 13:03:26;;;;;;;0.10;0.10;;;5.50;99.90;;;;;;5026101;28;20200;-81
2021/12/02 13:05:58;;;;;;;0.03;0.03;;;5.60;99.90;;;;;;5009861;28;20211;-81
2021/12/02 13:08:30;;;;;;;0.10;0.10;;;5.60;99.90;;;;;;5004745;28;20181;-80
2021/12/02 13:11:00;;;;;;;0.10;0.10;;;5.90;99.90;;;;;;5006318;28;20187;-81
2021/12/02 13:13:30;;;;;;;0.17;0.17;;;5.80;99.90;;;;;;5003084;28;20277;-82
2021/12/02 13:16:17;;;;;;;0.20;0.20;;;5.60;99.90;;;;;;5004007;28;20259;-81
2021/12/02 13:18:46;;;;;;;0.10;0.10;;;5.60;99.90;;;;;;4995782;28;20653;-81
2021/12/02 13:21:30;;;;;;;0.23;0.23;;;5.60;99.90;;;;;;5022703;28;20184;-81
2021/12/02 13:24:14;;;;;;;0.10;0.10;;;5.80;99.90;;;;;;5002926;28;20198;-81
2021/12/02 13:26:45;;;;;;;0.10;0.10;;;5.80;99.90;;;;;;4997725;28;20218;-80
2021/12/02 13:29:13;;;;;;;0.20;0.20;;;5.60;99.90;;;;;;5005851;28;20283;-79
2021/12/02 13:31:46;;;;;;;0.10;0.10;;;5.70;99.90;;;;;;5001316;28;20180;-80
2021/12/02 13:34:14;;;;;;;0.27;0.27;;;5.70;99.90;;;;;;5006355;28;20208;-80
2021/12/02 13:36:45;;;;;;;0.10;0.10;;;5.50;99.90;;;;;;5000543;28;20213;-80